createdAt,value
2023-05-07T00:01:50.025Z,2.83
2023-05-07T00:04:21.996Z,2.27
2023-05-07T00:06:51.823Z,1.30
2023-05-07T00:09:22.474Z,2.50
2023-05-07T00:11:53.026Z,1.60
2023-05-07T00:14:23.997Z,2.47
2023-05-07T00:16:53.517Z,2.27
2023-05-07T00:19:26.009Z,2.83
2023-05-07T00:21:57.641Z,3.20
2023-05-07T00:24:27.863Z,2.03
2023-05-07T00:27:03.138Z,2.17
2023-05-07T00:29:33.521Z,2.93
2023-05-07T00:32:06.553Z,1.97
2023-05-07T00:34:36.779Z,1.90
2023-05-07T00:37:10.883Z,2.03
2023-05-07T00:39:42.412Z,2.03
2023-05-07T00:42:13.702Z,2.80
2023-05-07T00:44:43.873Z,2.13
2023-05-07T00:47:15.766Z,2.80
2023-05-07T00:49:57.049Z,1.87
2023-05-07T00:52:29.591Z,2.60
2023-05-07T00:55:03.188Z,2.27
2023-05-07T00:57:37.949Z,2.57
2023-05-07T01:00:14.797Z,2.77
2023-05-07T01:02:48.138Z,1.57
2023-05-07T01:05:18.736Z,3.07
2023-05-07T01:07:47.977Z,1.80
2023-05-07T01:10:19.066Z,2.90
2023-05-07T01:12:54.788Z,1.53
2023-05-07T01:15:25.025Z,2.43
2023-05-07T01:17:57.262Z,1.50
2023-05-07T01:20:31.363Z,2.23
2023-05-07T01:23:03.565Z,1.77
2023-05-07T01:25:35.079Z,1.80
2023-05-07T01:28:03.998Z,3.07
2023-05-07T01:30:33.268Z,2.43
2023-05-07T01:33:29.568Z,2.03
2023-05-07T01:36:13.008Z,2.80
2023-05-07T01:38:44.862Z,1.50
2023-05-07T01:41:13.910Z,1.87
2023-05-07T01:43:43.968Z,1.43
2023-05-07T01:46:13.379Z,2.83
2023-05-07T01:49:08.561Z,1.90
2023-05-07T01:51:39.417Z,1.90
2023-05-07T01:54:07.784Z,2.50
2023-05-07T01:56:38.600Z,2.60
2023-05-07T01:59:08.900Z,2.03
2023-05-07T02:01:40.080Z,1.77
2023-05-07T02:04:11.510Z,1.73
2023-05-07T02:06:44.390Z,1.43
2023-05-07T02:09:15.180Z,3.13
2023-05-07T02:11:50.201Z,2.70
2023-05-07T02:14:21.141Z,2.47
2023-05-07T02:16:51.347Z,2.67
2023-05-07T02:19:24.871Z,2.63
2023-05-07T02:21:54.352Z,2.07
2023-05-07T02:24:25.303Z,2.40
2023-05-07T02:26:55.442Z,1.73
2023-05-07T02:29:28.286Z,2.17
2023-05-07T02:31:56.713Z,1.90
2023-05-07T02:34:36.922Z,2.23
2023-05-07T02:37:09.332Z,1.97
2023-05-07T02:39:40.717Z,1.50
2023-05-07T02:42:11.257Z,2.07
2023-05-07T02:44:44.328Z,2.23
2023-05-07T02:47:16.233Z,3.30
2023-05-07T02:49:47.034Z,2.27
2023-05-07T02:52:18.869Z,1.60
2023-05-07T02:54:49.785Z,1.53
2023-05-07T02:57:20.150Z,1.50
2023-05-07T02:59:54.386Z,1.50
2023-05-07T03:02:24.500Z,2.03
2023-05-07T03:04:54.135Z,1.53
2023-05-07T03:07:26.633Z,3.80
2023-05-07T03:09:57.775Z,2.43
2023-05-07T03:12:29.748Z,2.20
2023-05-07T03:15:06.129Z,2.00
2023-05-07T03:17:37.623Z,1.40
2023-05-07T03:20:07.471Z,2.03
2023-05-07T03:22:35.988Z,1.70
2023-05-07T03:25:07.556Z,2.13
2023-05-07T03:27:37.973Z,2.50
2023-05-07T03:30:12.320Z,2.30
2023-05-07T03:32:43.624Z,2.43
2023-05-07T03:35:13.011Z,2.33
2023-05-07T03:37:41.231Z,3.63
2023-05-07T03:40:12.234Z,2.57
2023-05-07T03:42:45.876Z,2.17
2023-05-07T03:45:15.578Z,2.57
2023-05-07T03:47:42.680Z,2.27
2023-05-07T03:50:14.928Z,1.97
2023-05-07T03:52:50.497Z,1.93
2023-05-07T03:56:27.638Z,1.60
2023-05-07T03:59:03.882Z,2.80
2023-05-07T04:01:32.360Z,1.57
2023-05-07T04:04:01.965Z,1.70
2023-05-07T04:06:32.937Z,2.00
2023-05-07T04:09:04.937Z,2.67
2023-05-07T04:11:39.286Z,2.10
2023-05-07T04:14:07.809Z,3.03
2023-05-07T04:16:36.866Z,1.90
2023-05-07T04:19:07.445Z,1.90
2023-05-07T04:21:38.487Z,1.97
2023-05-07T04:24:06.843Z,1.90
2023-05-07T04:26:33.662Z,2.10
2023-05-07T04:29:05.363Z,2.27
2023-05-07T04:31:35.384Z,2.70
2023-05-07T04:34:06.693Z,1.70
2023-05-07T04:36:38.473Z,2.53
2023-05-07T04:39:11.001Z,1.70
2023-05-07T04:41:41.950Z,2.00
2023-05-07T04:44:13.162Z,2.17
2023-05-07T04:46:40.225Z,2.33
2023-05-07T04:49:10.011Z,2.20
2023-05-07T04:51:39.917Z,2.87
2023-05-07T04:54:09.557Z,2.23
2023-05-07T04:56:37.768Z,2.73
2023-05-07T04:59:13.106Z,2.50
2023-05-07T05:01:41.702Z,2.00
2023-05-07T05:04:12.322Z,2.60
2023-05-07T05:06:44.380Z,2.67
2023-05-07T05:09:14.411Z,2.97
2023-05-07T05:11:42.581Z,2.17
2023-05-07T05:14:12.427Z,2.57
2023-05-07T05:16:44.178Z,2.90
2023-05-07T05:19:14.582Z,2.97
2023-05-07T05:21:46.264Z,2.30
2023-05-07T05:24:18.632Z,2.07
2023-05-07T05:26:50.708Z,1.70
2023-05-07T05:29:20.653Z,3.70
2023-05-07T05:31:50.366Z,2.10
2023-05-07T05:34:23.836Z,2.30
2023-05-07T05:36:54.103Z,2.03
2023-05-07T05:39:26.428Z,2.53
2023-05-07T05:41:55.414Z,2.10
2023-05-07T05:44:25.563Z,2.73
2023-05-07T05:47:15.106Z,1.67
2023-05-07T05:49:48.846Z,2.13
2023-05-07T05:52:22.040Z,1.90
2023-05-07T05:54:52.908Z,2.70
2023-05-07T05:57:25.184Z,2.00
2023-05-07T06:00:01.308Z,2.10
2023-05-07T06:02:31.409Z,3.10
2023-05-07T06:05:04.038Z,2.83
2023-05-07T06:07:35.127Z,2.00
2023-05-07T06:10:03.882Z,1.63
2023-05-07T06:12:32.321Z,2.90
2023-05-07T06:15:08.925Z,2.10
2023-05-07T06:17:48.297Z,3.37
2023-05-07T06:20:20.037Z,1.97
2023-05-07T06:22:51.526Z,2.20
2023-05-07T06:25:23.618Z,2.63
2023-05-07T06:27:50.948Z,3.10
2023-05-07T06:30:18.727Z,2.30
2023-05-07T06:32:47.955Z,1.90
2023-05-07T06:35:19.829Z,1.63
2023-05-07T06:37:46.540Z,2.00
2023-05-07T06:40:17.116Z,2.20
2023-05-07T06:42:47.210Z,2.00
2023-05-07T06:45:15.429Z,2.33
2023-05-07T06:47:47.427Z,5.53
2023-05-07T06:50:17.013Z,1.73
2023-05-07T06:52:47.637Z,2.13
2023-05-07T06:55:15.837Z,2.20
2023-05-07T06:57:43.973Z,2.30
2023-05-07T07:00:18.609Z,2.00
2023-05-07T07:02:48.506Z,1.97
2023-05-07T07:05:20.290Z,2.73
2023-05-07T07:10:39.341Z,2.10
2023-05-07T07:13:10.907Z,2.30
2023-05-07T07:15:42.626Z,1.60
2023-05-07T07:18:14.104Z,2.10
2023-05-07T07:20:42.989Z,2.67
2023-05-07T07:23:12.732Z,1.70
2023-05-07T07:25:43.504Z,1.83
2023-05-07T07:28:14.298Z,2.10
2023-05-07T07:33:29.868Z,2.33
2023-05-07T07:36:01.583Z,2.03
2023-05-07T07:38:42.549Z,2.00
2023-05-07T07:41:11.332Z,2.53
2023-05-07T07:43:41.305Z,1.70
2023-05-07T07:46:13.596Z,2.73
2023-05-07T07:51:28.483Z,2.93
2023-05-07T07:54:02.240Z,3.50
2023-05-07T07:56:32.932Z,3.67
2023-05-07T07:59:10.025Z,7.87
2023-05-07T08:01:40.246Z,5.47
2023-05-07T08:04:11.884Z,4.47
2023-05-07T08:06:40.077Z,3.90
2023-05-07T08:09:11.979Z,7.13
2023-05-07T08:11:40.957Z,4.77
2023-05-07T08:14:13.777Z,4.37
2023-05-07T08:16:47.853Z,6.40
2023-05-07T08:19:16.932Z,7.50
2023-05-07T08:21:49.902Z,2.77
2023-05-07T08:24:21.500Z,5.63
2023-05-07T08:26:53.361Z,3.73
2023-05-07T08:29:21.218Z,3.67
2023-05-07T08:31:49.676Z,3.37
2023-05-07T08:34:20.632Z,3.13
2023-05-07T08:36:52.742Z,4.40
2023-05-07T08:39:23.569Z,5.10
2023-05-07T08:41:59.798Z,6.90
2023-05-07T08:44:29.382Z,3.73
2023-05-07T08:47:01.266Z,6.43
2023-05-07T08:49:31.324Z,4.30
2023-05-07T08:52:00.162Z,3.67
2023-05-07T08:54:41.253Z,3.30
2023-05-07T08:57:11.493Z,6.40
2023-05-07T08:59:46.353Z,12.90
2023-05-07T09:02:19.070Z,10.27
2023-05-07T09:04:47.117Z,9.57
2023-05-07T09:07:17.216Z,14.63
2023-05-07T09:09:46.034Z,10.80
2023-05-07T09:12:15.901Z,10.43
2023-05-07T09:14:46.202Z,5.73
2023-05-07T09:17:16.792Z,7.67
2023-05-07T09:19:52.802Z,7.73
2023-05-07T09:22:24.811Z,6.87
2023-05-07T09:24:56.214Z,7.40
2023-05-07T09:27:28.500Z,7.87
2023-05-07T09:30:00.177Z,9.37
2023-05-07T09:32:36.672Z,8.87
2023-05-07T09:35:10.560Z,7.53
2023-05-07T09:37:44.524Z,6.27
2023-05-07T09:40:29.385Z,7.93
2023-05-07T09:43:25.474Z,11.43
2023-05-07T09:46:00.000Z,9.53
2023-05-07T09:48:33.650Z,7.80
2023-05-07T09:51:07.156Z,4.53
2023-05-07T09:53:38.740Z,7.90
2023-05-07T09:56:11.712Z,5.70
2023-05-07T09:58:42.450Z,5.27
2023-05-07T10:01:13.726Z,5.00
2023-05-07T10:03:47.133Z,5.57
2023-05-07T10:06:23.440Z,5.97
2023-05-07T10:08:55.055Z,6.17
2023-05-07T10:11:26.993Z,4.70
2023-05-07T10:13:59.008Z,3.50
2023-05-07T10:16:35.204Z,3.73
2023-05-07T10:19:20.822Z,4.80
2023-05-07T10:22:11.973Z,3.13
2023-05-07T10:24:47.819Z,7.47
2023-05-07T10:30:24.020Z,5.63
2023-05-07T10:33:07.484Z,3.40
2023-05-07T10:35:46.851Z,3.63
2023-05-07T10:38:14.941Z,3.50
2023-05-07T10:40:47.983Z,5.03
2023-05-07T10:46:19.293Z,5.77
2023-05-07T10:49:07.631Z,4.40
2023-05-07T10:51:41.893Z,5.50
2023-05-07T10:54:30.232Z,5.77
2023-05-07T10:57:27.102Z,4.53
2023-05-07T10:59:59.299Z,4.27
2023-05-07T11:03:02.187Z,4.77
2023-05-07T11:05:35.769Z,3.40
2023-05-07T11:08:13.291Z,5.07
2023-05-07T11:11:01.581Z,3.93
2023-05-07T11:13:54.077Z,6.00
2023-05-07T11:16:25.887Z,4.40
2023-05-07T11:18:59.900Z,4.80
2023-05-07T11:21:50.383Z,7.80
2023-05-07T11:24:20.491Z,2.20
2023-05-07T11:26:54.643Z,4.17
2023-05-07T11:29:26.821Z,5.73
2023-05-07T11:32:08.261Z,3.13
2023-05-07T11:34:40.340Z,4.53
2023-05-07T11:37:15.745Z,5.00
2023-05-07T11:39:44.388Z,5.97
2023-05-07T11:42:37.362Z,3.20
2023-05-07T11:45:12.621Z,3.80
2023-05-07T11:47:45.870Z,3.00
2023-05-07T11:50:17.873Z,2.83
2023-05-07T11:52:56.141Z,3.37
2023-05-07T11:55:26.459Z,3.63
2023-05-07T11:57:54.265Z,3.40
2023-05-07T12:03:24.042Z,3.07
2023-05-07T12:05:55.136Z,2.37
2023-05-07T12:08:27.108Z,2.57
2023-05-07T12:10:57.908Z,3.87
2023-05-07T12:13:29.774Z,3.23
2023-05-07T12:16:01.540Z,3.30
2023-05-07T12:18:36.599Z,2.83
2023-05-07T12:21:05.998Z,3.80
2023-05-07T12:26:20.481Z,4.00
2023-05-07T12:28:53.247Z,3.00
2023-05-07T12:31:22.404Z,3.07
2023-05-07T12:33:49.167Z,2.33
2023-05-07T12:36:19.498Z,4.10
2023-05-07T12:38:58.561Z,2.10
2023-05-07T12:41:32.735Z,2.37
2023-05-07T12:44:07.229Z,2.03
2023-05-07T12:46:42.230Z,2.57
2023-05-07T12:49:10.506Z,4.23
2023-05-07T12:51:44.968Z,1.93
2023-05-07T12:54:15.353Z,3.20
2023-05-07T12:56:48.010Z,2.23
2023-05-07T12:59:19.539Z,2.00
2023-05-07T13:01:50.267Z,3.00
2023-05-07T13:04:21.302Z,2.33
2023-05-07T13:06:51.593Z,3.10
2023-05-07T13:09:21.590Z,3.47
2023-05-07T13:11:55.539Z,3.77
2023-05-07T13:14:27.217Z,1.43
2023-05-07T13:16:58.100Z,1.93
2023-05-07T13:19:31.043Z,3.93
2023-05-07T13:22:00.207Z,2.67
2023-05-07T13:24:30.513Z,2.80
2023-05-07T13:27:03.119Z,3.90
2023-05-07T13:29:34.942Z,3.73
2023-05-07T13:32:07.548Z,2.17
2023-05-07T13:34:38.588Z,2.57
2023-05-07T13:37:11.822Z,2.87
2023-05-07T13:39:44.995Z,1.73
2023-05-07T13:42:16.732Z,3.30
2023-05-07T13:44:48.918Z,2.20
2023-05-07T13:47:17.937Z,2.10
2023-05-07T13:49:46.173Z,3.27
2023-05-07T13:52:14.927Z,1.93
2023-05-07T13:54:44.700Z,1.77
2023-05-07T13:57:16.246Z,3.87
2023-05-07T13:59:46.625Z,1.40
2023-05-07T14:02:17.938Z,4.40
2023-05-07T14:04:50.056Z,2.17
2023-05-07T14:07:20.753Z,1.93
2023-05-07T14:09:57.390Z,1.67
2023-05-07T14:12:31.152Z,2.07
2023-05-07T14:17:45.875Z,2.57
2023-05-07T14:20:16.764Z,2.13
2023-05-07T14:22:48.871Z,3.97
2023-05-07T14:25:18.978Z,2.27
2023-05-07T14:27:54.798Z,2.43
2023-05-07T14:30:26.241Z,3.53
2023-05-07T14:32:56.138Z,1.93
2023-05-07T14:35:26.838Z,2.40
2023-05-07T14:37:56.578Z,2.30
2023-05-07T14:40:24.567Z,3.03
2023-05-07T14:42:55.663Z,1.73
2023-05-07T14:45:23.895Z,2.57
2023-05-07T14:47:55.725Z,1.57
2023-05-07T14:50:32.271Z,1.67
2023-05-07T14:53:00.371Z,1.63
2023-05-07T14:55:33.609Z,1.60
2023-05-07T14:58:15.874Z,2.60
2023-05-07T15:00:46.804Z,1.90
2023-05-07T15:03:15.789Z,2.83
2023-05-07T15:05:44.741Z,1.93
2023-05-07T15:08:16.521Z,1.33
2023-05-07T15:10:47.600Z,3.40
2023-05-07T15:13:19.214Z,1.97
2023-05-07T15:15:48.213Z,1.43
2023-05-07T15:20:52.282Z,1.77
2023-05-07T15:23:21.528Z,1.50
2023-05-07T15:25:50.270Z,1.67
2023-05-07T15:28:24.572Z,1.37
2023-05-07T15:30:57.859Z,2.07
2023-05-07T15:33:28.946Z,1.63
2023-05-07T15:36:02.271Z,2.47
2023-05-07T15:38:43.219Z,1.77
2023-05-07T15:41:14.450Z,2.43
2023-05-07T15:43:53.664Z,1.63
2023-05-07T15:46:36.187Z,1.00
2023-05-07T15:49:11.415Z,2.00
2023-05-07T15:51:42.856Z,1.30
2023-05-07T15:54:12.708Z,1.40
2023-05-07T15:56:43.202Z,1.50
2023-05-07T15:59:15.463Z,1.30
2023-05-07T16:01:48.707Z,1.67
2023-05-07T16:04:16.540Z,2.50
2023-05-07T16:06:50.213Z,1.77
2023-05-07T16:09:21.308Z,1.47
2023-05-07T16:11:49.676Z,1.27
2023-05-07T16:14:21.080Z,2.13
2023-05-07T16:16:54.662Z,2.30
2023-05-07T16:19:24.381Z,1.93
2023-05-07T16:21:53.431Z,1.63
2023-05-07T16:24:25.646Z,2.47
2023-05-07T16:26:56.081Z,2.00
2023-05-07T16:29:26.200Z,2.20
2023-05-07T16:31:57.117Z,7.33
2023-05-07T16:34:26.623Z,2.50
2023-05-07T16:36:56.434Z,4.60
2023-05-07T16:39:26.945Z,3.20
2023-05-07T16:41:56.876Z,4.03
2023-05-07T16:44:24.948Z,4.27
2023-05-07T16:46:54.496Z,3.43
2023-05-07T16:49:26.094Z,2.50
2023-05-07T16:51:55.511Z,2.13
2023-05-07T16:54:29.275Z,4.33
2023-05-07T16:56:59.659Z,3.20
2023-05-07T16:59:34.110Z,3.10
2023-05-07T17:02:04.782Z,1.80
2023-05-07T17:04:36.393Z,4.63
2023-05-07T17:07:06.921Z,3.17
2023-05-07T17:09:34.809Z,2.13
2023-05-07T17:12:05.311Z,2.07
2023-05-07T17:14:36.725Z,2.93
2023-05-07T17:17:07.865Z,3.97
2023-05-07T17:19:40.068Z,2.67
2023-05-07T17:22:12.303Z,3.23
2023-05-07T17:24:43.958Z,2.50
2023-05-07T17:27:15.530Z,3.00
2023-05-07T17:29:45.540Z,3.03
2023-05-07T17:32:16.111Z,2.10
2023-05-07T17:34:48.796Z,3.57
2023-05-07T17:37:21.599Z,5.43
2023-05-07T17:39:57.100Z,2.23
2023-05-07T17:42:28.365Z,2.07
2023-05-07T17:45:00.220Z,2.63
2023-05-07T17:47:37.052Z,3.17
2023-05-07T17:52:54.838Z,2.70
2023-05-07T17:55:24.474Z,3.43
2023-05-07T17:58:16.907Z,2.63
2023-05-07T18:00:46.914Z,3.23
2023-05-07T18:03:16.069Z,3.90
2023-05-07T18:05:48.161Z,3.17
2023-05-07T18:08:16.890Z,2.40
2023-05-07T18:10:45.767Z,4.00
2023-05-07T18:13:16.859Z,3.23
2023-05-07T18:15:47.773Z,3.73
2023-05-07T18:18:18.621Z,3.70
2023-05-07T18:20:55.192Z,3.60
2023-05-07T18:23:46.992Z,3.90
2023-05-07T18:26:17.780Z,3.97
2023-05-07T18:28:49.927Z,4.10
2023-05-07T18:31:23.693Z,3.67
2023-05-07T18:33:58.282Z,3.83
2023-05-07T18:36:29.240Z,4.50
2023-05-07T18:39:02.063Z,4.30
2023-05-07T18:41:33.838Z,3.10
2023-05-07T18:44:04.984Z,3.10
2023-05-07T18:46:36.583Z,3.23
2023-05-07T18:49:08.153Z,4.27
2023-05-07T18:51:37.544Z,5.27
2023-05-07T18:54:08.070Z,4.40
2023-05-07T18:56:37.048Z,4.67
2023-05-07T18:59:17.781Z,4.87
2023-05-07T19:01:48.508Z,3.83
2023-05-07T19:04:21.351Z,2.90
2023-05-07T19:06:53.503Z,2.70
2023-05-07T19:09:24.550Z,6.50
2023-05-07T19:11:52.768Z,5.73
2023-05-07T19:14:28.865Z,2.53
2023-05-07T19:16:58.728Z,3.30
2023-05-07T19:19:27.391Z,2.53
2023-05-07T19:22:00.282Z,5.27
2023-05-07T19:24:32.111Z,3.93
2023-05-07T19:29:56.511Z,2.87
2023-05-07T19:32:30.045Z,4.03
2023-05-07T19:35:07.040Z,7.63
2023-05-07T19:37:36.262Z,3.83
2023-05-07T19:40:11.275Z,3.67
2023-05-07T19:42:40.578Z,3.00
2023-05-07T19:45:12.709Z,2.90
2023-05-07T19:47:41.753Z,2.37
2023-05-07T19:50:11.548Z,3.23
2023-05-07T19:52:41.053Z,2.47
2023-05-07T19:55:12.135Z,3.00
2023-05-07T19:57:43.423Z,2.53
2023-05-07T20:00:13.513Z,3.90
2023-05-07T20:02:40.787Z,2.00
2023-05-07T20:05:14.631Z,2.03
2023-05-07T20:07:44.474Z,2.90
2023-05-07T20:10:17.446Z,3.60
2023-05-07T20:12:47.588Z,2.63
2023-05-07T20:15:19.185Z,2.30
2023-05-07T20:17:49.595Z,2.47
2023-05-07T20:20:20.618Z,2.60
2023-05-07T20:22:49.703Z,2.87
2023-05-07T20:25:20.830Z,2.30
2023-05-07T20:27:47.485Z,1.70
2023-05-07T20:30:16.189Z,2.27
2023-05-07T20:35:27.312Z,4.63
2023-05-07T20:37:59.587Z,3.80
2023-05-07T20:40:29.391Z,2.27
2023-05-07T20:42:58.609Z,1.43
2023-05-07T20:45:29.423Z,1.77
2023-05-07T20:47:58.732Z,2.00
2023-05-07T20:50:29.091Z,2.13
2023-05-07T20:52:55.833Z,2.60
2023-05-07T20:55:30.012Z,1.97
2023-05-07T20:57:59.504Z,1.60
2023-05-07T21:00:31.295Z,2.37
2023-05-07T21:03:06.357Z,1.40
2023-05-07T21:05:35.101Z,5.20
2023-05-07T21:08:07.109Z,2.73
2023-05-07T21:10:38.342Z,2.00
2023-05-07T21:13:06.665Z,3.90
2023-05-07T21:15:39.358Z,2.13
2023-05-07T21:18:14.638Z,3.07
2023-05-07T21:20:41.862Z,2.33
2023-05-07T21:23:12.127Z,1.30
2023-05-07T21:25:44.070Z,1.57
2023-05-07T21:28:14.421Z,1.47
2023-05-07T21:30:43.380Z,1.43
2023-05-07T21:33:15.560Z,1.20
2023-05-07T21:35:50.378Z,1.20
2023-05-07T21:38:23.587Z,2.67
2023-05-07T21:40:58.912Z,2.57
2023-05-07T21:43:26.897Z,1.93
2023-05-07T21:45:58.044Z,1.57
2023-05-07T21:48:31.562Z,2.97
2023-05-07T21:51:07.506Z,3.43
2023-05-07T21:53:40.132Z,4.80
2023-05-07T21:56:12.031Z,3.03
2023-05-07T21:58:42.749Z,3.53
2023-05-07T22:01:15.879Z,2.77
2023-05-07T22:03:42.909Z,8.10
2023-05-07T22:06:11.507Z,4.43
2023-05-07T22:08:43.247Z,3.17
2023-05-07T22:11:14.831Z,1.83
2023-05-07T22:13:45.942Z,4.60
2023-05-07T22:16:17.302Z,5.90
2023-05-07T22:18:51.674Z,6.53
2023-05-07T22:21:23.082Z,3.50
2023-05-07T22:23:57.934Z,2.43
2023-05-07T22:26:35.588Z,2.67
2023-05-07T22:29:03.640Z,5.77
2023-05-07T22:31:31.629Z,3.17
2023-05-07T22:34:01.753Z,2.27
2023-05-07T22:36:30.028Z,1.77
2023-05-07T22:38:59.831Z,4.37
2023-05-07T22:41:29.003Z,1.70
2023-05-07T22:44:02.204Z,1.37
2023-05-07T22:46:33.139Z,2.23
2023-05-07T22:49:05.200Z,2.60
2023-05-07T22:51:35.579Z,2.80
2023-05-07T22:54:08.535Z,1.77
2023-05-07T22:56:39.755Z,5.87
2023-05-07T22:59:11.016Z,4.60
2023-05-07T23:01:41.329Z,1.97
2023-05-07T23:06:58.340Z,1.87
2023-05-07T23:09:27.096Z,1.63
2023-05-07T23:11:56.755Z,1.60
2023-05-07T23:14:28.568Z,1.37
2023-05-07T23:16:57.928Z,3.57
2023-05-07T23:19:28.223Z,1.27
2023-05-07T23:22:01.007Z,1.40
2023-05-07T23:24:37.567Z,1.40
2023-05-07T23:27:08.929Z,1.63
2023-05-07T23:29:38.764Z,2.43
2023-05-07T23:32:07.806Z,1.30
2023-05-07T23:34:38.685Z,1.70
2023-05-07T23:37:08.372Z,1.20
2023-05-07T23:39:37.166Z,1.40
2023-05-07T23:42:09.612Z,1.77
2023-05-07T23:44:44.005Z,1.40
2023-05-07T23:47:13.879Z,1.30
2023-05-07T23:49:42.859Z,2.43
2023-05-07T23:52:16.981Z,4.63
2023-05-07T23:54:51.858Z,1.87
2023-05-07T23:57:22.026Z,2.33
2023-05-07T23:59:48.965Z,1.40
